Merry Christmas and Happy New Year!

 

Sretan Božić i Nova godina!

 

METAR

METAR LDZA 201530Z 13003KT 090V170 7000 FEW010 OVC018 03/01 Q1045 TEMPO BKN010 =
METAR LDSP 201530Z 03005KT 360V060 CAVOK 08/M05 Q1038 NOSIG=
METAR LDDU 201530Z 28005KT CAVOK 10/00 Q1036 TEMPO 32007KT =
METAR LDZD 201530Z 09006KT 050V140 CAVOK 07/M04 Q1038 TEMPO 07012KT =
METAR LDPL 201530Z 08019KT CAVOK 07/M02 Q1040 TEMPO 08020G30KT=
METAR LDOS 201530Z VRB02KT 4000 BR BKN033 01/00 Q1045 R11/19//94=
METAR LDRI 201530Z 06011KT 350V150 CAVOK 07/M04 Q1041=

TAF

TAF LDZA 201126Z 2012/2112 VRB02KT 6000 SCT008 BKN020
                 TX03/2012Z TNM03/2106Z
    PROB40 TEMPO 2012/2112 BKN005 OVC015
          PROB30 2017/2021 3000 BR
           BECMG 2021/2023 2000 BR
    PROB30 TEMPO 2102/2108 0500 FZDZ FZFG VV002
           BECMG 2110/2112 5000=
TAF COR LDSP 201145Z 2012/2112 VRB02KT CAVOK
                     TX12/2013Z TN01/2105Z
        PROB30 TEMPO 2012/2100 05010KT=
TAF LDDU 201125Z 2012/2112 VRB02KT CAVOK
                 TX11/2012Z TN00/2105Z
           TEMPO 2012/2017 32007KT
           BECMG 2016/2018 02018KT
    PROB30 TEMPO 2018/2100 02020G30KT
           BECMG 2109/2111 20006KT=
TAF LDZD 201125Z 2012/2112 06008KT CAVOK
                 TX10/2013Z TNM03/2105Z
           TEMPO 2012/2018 06015KT
           BECMG 2020/2022 06005KT=
TAF LDPL 201125Z 2012/2112 07018KT CAVOK
                 TX09/2013Z TN01/2105Z
    PROB40 TEMPO 2012/2022 07020G30KT
           BECMG 2101/2103 05008KT=
TAF COR LDOS 201355Z 2012/2112 VRB02KT 3000 BR SCT010 OVC025
                     TX01/2013Z TNM04/2104Z
              PROB40 2012/2018 6000 NSW BKN010
               TEMPO 2019/2110 1000 -FZDZ BR BKN006
               BECMG 2110/2112 5000=
TAF LDRI 201125Z 2012/2112 05018G30KT CAVOK
                 TX08/2013Z TN02/2105Z
    PROB40 TEMPO 2012/2015 02025G45KT
           BECMG 2015/2017 05012KT
           TEMPO 2015/2022 05015G25KT
    PROB30 TEMPO 2015/2102 VRB10KT
           BECMG 2101/2103 03005KT=
TAF AMD LDLO 192138Z 1921/2018 CNL=

SIGMET

AIRMET

LDZO AIRMET 13 VALID 201400/201800 LDZA-
LDZO ZAGREB FIR MOD TURB FCST WI N4533 E01300 - N4539 E01434 - N4435
E01522 - N4413 E01621 - N4335 E01543 - N4458 E01300 - N4533 E01300
SFC/5000FT STNR NC=
LDZO AIRMET 14 VALID 201400/201800 LDZA-
LDZO ZAGREB FIR MT OBSC OBS WI N4621 E01622 - N4355 E01636 - N4424
E01512 - N4531 E01413 - N4621 E01622 ABV 1800FT STNR NC=
LDZO AIRMET 15 VALID 201400/201800 LDZA-
LDZO ZAGREB FIR MOD ICE FCST NE OF LINE N4537 E01433 - N4430 E01512
- N4407 E01618 1800/6000FT STNR NC=
LDZO AIRMET 16 VALID 201435/201600 LDZA-
LDZO ZAGREB FIR SFC VIS 2000M BR OBS N OF N4449 AND E OF E01732 STNR
WKN=

Remark

Ukoliko se brzina i smjer vjetra ne mogu odrediti zbog privremenog kvara sustava/indikatora,
informacija o vjetru u METAR izvješću bit će prikazana kao "/////KT".

 

Disclaimer

 

In case of temporary system/sensor failure, wind speed and direction data will be represented as "/////KT" in METAR report.

 

If you cannot log in with your user account, please contact stjepko.jancijev@crocontrol.hr.
Specifically, the website deactivates user accounts that have not been used for more than 365 days, so they must be reactivated.
 

         

      Politika MET podataka      

 

Ukoliko se svojim korisničkim računom ne možete logirati na web stranicu, molim vas da se obratite na stjepko.jancijev@crocontrol.hr.

Naime, web stranica deaktivira korisničke račune koji nisu korišteni više od 365 dana te ih je potrebno ponovno aktivirati.